< Typhoon 199420 1994 Season Typhoon 199422 >
Typhoon 199421 (KINNA)
General InformationTrack Information on Google MapsDetailed Wind InformationList of All Images || NewsDisaster Info.ResourceGoogle EarthGE AnimationAtom FeedGeoJSON
Detalied Best Track (Time Zone = UTC)
Year Month Day Hour Lat. Long. Pressure (hPa) Wind (kt) Class Image Chart
1994 9 5 06 20.0 140.0 1004 0 2 Image Chart
1994 9 5 12 21.5 140.5 1000 0 2 Image Chart
1994 9 5 18 22.3 140.8 1000 0 2 Image Chart
1994 9 6 00 23.1 141.0 996 35 3 Image Chart
1994 9 6 06 24.0 140.9 996 35 3 Image Chart
1994 9 6 12 24.2 140.8 994 40 3 Image Chart
1994 9 6 15 24.4 140.7 994 40 3 Image Chart
1994 9 6 18 24.6 140.6 992 45 3 Image Chart
1994 9 6 21 24.8 140.5 992 45 3 Image Chart
1994 9 7 00 24.9 140.4 992 45 3 Image Chart
1994 9 7 03 25.1 140.3 992 45 3 Image Chart
1994 9 7 06 25.2 140.2 992 45 3 Image Chart
1994 9 7 12 25.4 140.0 992 45 3 Image Chart
1994 9 7 18 25.7 139.8 992 45 3 Image Chart
1994 9 8 00 26.1 139.7 992 45 3 Image Chart
1994 9 8 06 27.0 139.5 990 45 3 Image Chart
1994 9 8 12 27.5 139.6 985 50 4 Image Chart
1994 9 8 18 27.9 139.7 980 50 4 Image Chart
1994 9 9 00 28.2 139.8 975 60 4 Image Chart
1994 9 9 06 28.5 139.9 975 60 4 Image Chart
1994 9 9 12 28.8 139.9 970 65 5 Image Chart
1994 9 9 18 29.4 139.8 965 70 5 Image Chart
1994 9 10 00 30.0 139.5 960 75 5 Image Chart
1994 9 10 06 30.5 139.2 960 75 5 Image Chart
1994 9 10 12 31.1 139.3 960 75 5 Image Chart
1994 9 10 18 31.8 139.8 960 75 5 Image Chart
1994 9 11 00 32.8 141.0 965 70 5 Image Chart
1994 9 11 06 33.9 142.3 970 65 5 Image Chart
1994 9 11 12 35.2 144.0 975 60 4 Image Chart
1994 9 11 18 37.2 146.2 980 55 4 Image Chart
1994 9 12 00 39.3 148.3 990 45 3 Image Chart
1994 9 12 06 42.5 151.5 992 0 6 Image Chart
1994 9 12 12 46.0 155.0 1008 0 6 Image Chart
1994 9 12 18 48.0 157.0 1008 0 6 Image Chart
1994 9 13 00 50.0 159.0 1008 0 6 Image Chart
Japan Meteorological Agency Best Track Data | Correction Date : 1995-01-30
< Typhoon 199420 1994 Season Typhoon 199422 >

Help